createdAt,value
2018-08-08T00:00:27.245Z,41.44
2018-08-08T00:02:57.989Z,42.13
2018-08-08T00:05:27.828Z,41.88
2018-08-08T00:07:57.646Z,42.21
2018-08-08T00:10:27.453Z,42.50
2018-08-08T00:12:57.273Z,42.72
2018-08-08T00:15:27.048Z,42.42
2018-08-08T00:17:56.881Z,42.89
2018-08-08T00:20:26.194Z,42.49
2018-08-08T00:22:56.048Z,43.29
2018-08-08T00:25:25.460Z,43.48
2018-08-08T00:27:54.820Z,43.43
2018-08-08T00:30:24.602Z,43.72
2018-08-08T00:32:54.398Z,43.72
2018-08-08T00:35:23.899Z,43.94
2018-08-08T00:37:53.650Z,44.33
2018-08-08T00:40:23.412Z,45.07
2018-08-08T00:42:52.864Z,44.56
2018-08-08T00:45:22.808Z,45.00
2018-08-08T00:47:52.304Z,44.29
2018-08-08T00:50:21.750Z,44.37
2018-08-08T00:52:51.673Z,44.89
2018-08-08T00:55:21.557Z,45.19
2018-08-08T00:57:50.980Z,44.55
2018-08-08T01:00:20.433Z,45.34
2018-08-08T01:02:50.268Z,45.81
2018-08-08T01:05:20.076Z,45.75
2018-08-08T01:07:49.470Z,45.67
2018-08-08T01:10:19.344Z,45.79
2018-08-08T01:12:49.228Z,46.33
2018-08-08T01:15:18.771Z,46.53
2018-08-08T01:17:48.283Z,46.17
2018-08-08T01:20:17.939Z,46.24
2018-08-08T01:22:47.425Z,46.26
2018-08-08T01:25:17.629Z,46.21
2018-08-08T01:27:47.135Z,46.49
2018-08-08T01:30:18.186Z,46.93
2018-08-08T01:32:48.173Z,46.44
2018-08-08T01:35:17.659Z,46.73
2018-08-08T01:37:47.203Z,46.72
2018-08-08T01:40:18.652Z,46.91
2018-08-08T01:42:48.118Z,47.19
2018-08-08T01:45:18.469Z,47.29
2018-08-08T01:47:48.353Z,48.04
2018-08-08T01:50:18.251Z,48.87
2018-08-08T01:52:47.692Z,47.99
2018-08-08T01:55:17.107Z,47.99
2018-08-08T01:57:46.897Z,48.50
2018-08-08T02:00:18.467Z,48.66
2018-08-08T02:02:48.532Z,48.75
2018-08-08T02:05:17.869Z,48.78
2018-08-08T02:07:47.255Z,49.00
2018-08-08T02:10:19.794Z,49.26
2018-08-08T02:12:50.440Z,48.93
2018-08-08T02:15:20.300Z,49.37
2018-08-08T02:17:50.187Z,49.50
2018-08-08T02:20:19.580Z,49.62
2018-08-08T02:22:48.991Z,50.30
2018-08-08T02:25:18.865Z,50.28
2018-08-08T02:27:48.661Z,50.91
2018-08-08T02:30:21.984Z,50.66
2018-08-08T02:32:52.599Z,51.58
2018-08-08T02:35:22.384Z,52.02
2018-08-08T02:37:51.948Z,51.69
2018-08-08T02:40:21.901Z,52.14
2018-08-08T02:42:51.728Z,53.65
2018-08-08T02:45:21.658Z,53.25
2018-08-08T02:47:51.187Z,53.09
2018-08-08T02:50:21.559Z,53.43
2018-08-08T02:52:51.384Z,55.63
2018-08-08T02:55:20.884Z,54.99
2018-08-08T02:57:50.334Z,55.43
2018-08-08T03:00:21.267Z,55.54
2018-08-08T03:02:51.015Z,55.46
2018-08-08T03:05:20.919Z,55.96
2018-08-08T03:07:50.371Z,55.61
2018-08-08T03:10:20.020Z,56.54
2018-08-08T03:12:49.495Z,56.50
2018-08-08T03:15:20.171Z,55.87
2018-08-08T03:17:49.954Z,57.41
2018-08-08T03:20:19.470Z,57.75
2018-08-08T03:22:49.023Z,58.33
2018-08-08T03:25:19.011Z,59.01
2018-08-08T03:27:48.900Z,58.19
2018-08-08T03:30:22.537Z,57.80
2018-08-08T03:32:52.663Z,59.85
2018-08-08T03:35:22.620Z,59.10
2018-08-08T03:37:52.122Z,59.66
2018-08-08T03:40:22.439Z,59.82
2018-08-08T03:42:53.137Z,59.53
2018-08-08T03:45:22.578Z,59.05
2018-08-08T03:47:52.247Z,59.08
2018-08-08T03:50:21.876Z,59.21
2018-08-08T03:52:51.794Z,58.96
2018-08-08T03:55:21.662Z,59.15
2018-08-08T03:57:51.270Z,60.87
2018-08-08T04:00:22.027Z,60.41
2018-08-08T04:02:52.138Z,61.45
2018-08-08T04:05:21.691Z,60.84
2018-08-08T04:07:51.178Z,59.92
2018-08-08T04:10:21.383Z,59.71
2018-08-08T04:12:52.129Z,59.90
2018-08-08T04:15:24.562Z,60.08
2018-08-08T04:17:54.199Z,59.92
2018-08-08T04:20:25.031Z,59.72
2018-08-08T04:22:54.605Z,59.86
2018-08-08T04:25:24.124Z,60.85
2018-08-08T04:27:54.335Z,61.54
2018-08-08T04:30:25.262Z,60.27
2018-08-08T04:32:55.166Z,61.21
2018-08-08T04:35:25.295Z,59.71
2018-08-08T04:37:54.994Z,58.99
2018-08-08T04:40:24.598Z,58.49
2018-08-08T04:42:54.462Z,59.31
2018-08-08T04:45:24.322Z,58.92
2018-08-08T04:47:55.178Z,59.51
2018-08-08T04:50:24.766Z,59.65
2018-08-08T04:52:55.513Z,58.80
2018-08-08T04:55:25.201Z,57.64
2018-08-08T04:57:55.066Z,56.90
2018-08-08T05:00:24.906Z,56.48
2018-08-08T05:02:55.325Z,56.69
2018-08-08T05:05:25.086Z,56.28
2018-08-08T05:07:55.050Z,55.91
2018-08-08T05:10:24.971Z,55.46
2018-08-08T05:12:54.772Z,54.94
2018-08-08T05:15:24.322Z,54.86
2018-08-08T05:17:54.222Z,54.59
2018-08-08T05:20:24.157Z,54.38
2018-08-08T05:22:53.562Z,54.76
2018-08-08T05:25:23.457Z,54.12
2018-08-08T05:27:52.893Z,54.77
2018-08-08T05:30:22.354Z,54.41
2018-08-08T05:32:51.825Z,53.87
2018-08-08T05:35:21.700Z,53.78
2018-08-08T05:37:51.727Z,53.45
2018-08-08T05:40:24.018Z,54.41
2018-08-08T05:42:54.600Z,55.04
2018-08-08T05:45:24.857Z,55.62
2018-08-08T05:47:55.525Z,55.94
2018-08-08T05:50:25.082Z,56.23
2018-08-08T05:52:54.910Z,56.23
2018-08-08T05:55:24.718Z,57.00
2018-08-08T05:57:54.216Z,56.62
2018-08-08T06:00:28.031Z,56.42
2018-08-08T06:02:57.621Z,56.93
2018-08-08T06:05:27.520Z,56.55
2018-08-08T06:07:57.469Z,56.42
2018-08-08T06:10:27.278Z,56.97
2018-08-08T06:12:56.816Z,56.83
2018-08-08T06:15:26.706Z,56.54
2018-08-08T06:17:56.239Z,56.12
2018-08-08T06:20:26.082Z,56.39
2018-08-08T06:22:55.655Z,56.06
2018-08-08T06:25:25.497Z,55.53
2018-08-08T06:27:55.427Z,55.55
2018-08-08T06:30:26.752Z,55.11
2018-08-08T06:32:57.550Z,54.99
2018-08-08T06:35:29.998Z,54.43
2018-08-08T06:37:59.973Z,54.34
2018-08-08T06:40:29.910Z,53.72
2018-08-08T06:42:59.863Z,53.64
2018-08-08T06:45:29.853Z,53.81
2018-08-08T06:47:59.440Z,53.31
2018-08-08T06:50:29.286Z,52.54
2018-08-08T06:52:59.219Z,52.47
2018-08-08T06:55:29.003Z,52.38
2018-08-08T06:57:58.493Z,51.98
2018-08-08T07:00:29.569Z,51.49
2018-08-08T07:02:59.574Z,51.37
2018-08-08T07:05:29.449Z,51.75
2018-08-08T07:07:59.324Z,50.50
2018-08-08T07:10:29.299Z,50.53
2018-08-08T07:12:59.185Z,49.65
2018-08-08T07:15:28.681Z,49.86
2018-08-08T07:17:58.421Z,49.42
2018-08-08T07:20:27.933Z,49.48
2018-08-08T07:22:57.354Z,49.07
2018-08-08T07:25:26.870Z,48.77
2018-08-08T07:27:56.597Z,48.21
2018-08-08T07:30:26.433Z,48.19
2018-08-08T07:32:56.319Z,47.76
2018-08-08T07:35:25.757Z,47.50
2018-08-08T07:37:55.392Z,47.31
2018-08-08T07:40:25.273Z,47.38
2018-08-08T07:42:54.802Z,46.80
2018-08-08T07:45:27.049Z,46.48
2018-08-08T07:47:56.915Z,46.44
2018-08-08T07:50:26.787Z,46.55
2018-08-08T07:52:56.320Z,45.97
2018-08-08T07:55:26.312Z,46.27
2018-08-08T07:57:55.760Z,46.15
2018-08-08T08:00:30.822Z,45.44
2018-08-08T08:03:01.192Z,45.05
2018-08-08T08:05:30.581Z,44.89
2018-08-08T08:08:00.442Z,43.82
2018-08-08T08:10:30.217Z,43.80
2018-08-08T08:12:59.594Z,43.86
2018-08-08T08:15:29.737Z,44.04
2018-08-08T08:17:59.558Z,43.94
2018-08-08T08:20:29.357Z,43.86
2018-08-08T08:22:59.213Z,43.37
2018-08-08T08:25:29.048Z,43.56
2018-08-08T08:27:58.525Z,42.60
2018-08-08T08:30:28.325Z,42.70
2018-08-08T08:32:58.197Z,42.32
2018-08-08T08:35:28.061Z,42.57
2018-08-08T08:37:57.507Z,41.87
2018-08-08T08:40:26.958Z,42.42
2018-08-08T08:42:56.807Z,42.08
2018-08-08T08:45:26.225Z,41.51
2018-08-08T08:47:55.633Z,41.80
2018-08-08T08:50:25.761Z,41.64
2018-08-08T08:52:55.746Z,41.39
2018-08-08T08:55:25.541Z,40.60
2018-08-08T08:57:55.522Z,40.15
2018-08-08T09:00:25.433Z,39.56
2018-08-08T09:02:54.854Z,39.66
2018-08-08T09:05:24.369Z,39.19
2018-08-08T09:07:54.292Z,39.16
2018-08-08T09:10:24.193Z,38.87
2018-08-08T09:12:54.035Z,38.62
2018-08-08T09:15:23.974Z,38.19
2018-08-08T09:17:53.995Z,38.61
2018-08-08T09:20:23.648Z,38.29
2018-08-08T09:22:53.708Z,37.75
2018-08-08T09:25:25.237Z,37.87
2018-08-08T09:27:54.842Z,36.69
2018-08-08T09:30:24.488Z,36.43
2018-08-08T09:32:59.017Z,35.91
2018-08-08T09:35:28.998Z,35.84
2018-08-08T09:38:00.435Z,35.74
2018-08-08T09:40:30.831Z,35.56
2018-08-08T09:43:01.337Z,35.74
2018-08-08T09:45:31.746Z,35.27
2018-08-08T09:48:01.617Z,35.81
2018-08-08T09:50:32.310Z,35.19
2018-08-08T09:53:02.830Z,33.97
2018-08-08T09:55:32.355Z,32.93
2018-08-08T09:58:02.759Z,33.27
2018-08-08T10:00:37.696Z,33.80
2018-08-08T10:03:12.610Z,33.68
2018-08-08T10:05:41.973Z,33.30
2018-08-08T10:08:12.745Z,32.81
2018-08-08T10:10:42.864Z,32.00
2018-08-08T10:13:12.656Z,31.58
2018-08-08T10:15:42.407Z,32.33
2018-08-08T10:18:12.430Z,32.33
2018-08-08T10:20:42.244Z,31.89
2018-08-08T10:23:12.013Z,31.61
2018-08-08T10:25:41.884Z,31.57
2018-08-08T10:28:11.397Z,30.81
2018-08-08T10:30:41.307Z,31.05
2018-08-08T10:33:11.815Z,31.33
2018-08-08T10:35:43.572Z,30.95
2018-08-08T10:38:13.338Z,30.93
2018-08-08T10:40:43.419Z,29.92
2018-08-08T10:43:13.452Z,29.87
2018-08-08T10:45:43.726Z,29.74
2018-08-08T10:48:15.061Z,29.96
2018-08-08T10:50:48.837Z,29.33
2018-08-08T10:53:18.409Z,28.04
2018-08-08T10:55:48.390Z,28.29
2018-08-08T10:58:18.803Z,28.34
2018-08-08T11:00:48.368Z,28.94
2018-08-08T11:03:18.439Z,29.57
2018-08-08T11:05:48.303Z,29.56
2018-08-08T11:08:18.162Z,29.40
2018-08-08T11:10:48.999Z,28.70
2018-08-08T11:13:18.840Z,28.23
2018-08-08T11:15:48.725Z,28.60
2018-08-08T11:18:19.452Z,27.93
2018-08-08T11:20:48.939Z,27.85
2018-08-08T11:23:19.124Z,27.70
2018-08-08T11:25:48.942Z,27.35
2018-08-08T11:28:19.079Z,27.14
2018-08-08T11:30:48.898Z,26.96
2018-08-08T11:33:18.689Z,26.76
2018-08-08T11:35:48.471Z,26.38
2018-08-08T11:38:18.492Z,26.75
2018-08-08T11:40:48.770Z,26.77
2018-08-08T11:43:18.354Z,25.84
2018-08-08T11:45:48.221Z,25.81
2018-08-08T11:48:19.612Z,25.88
2018-08-08T11:50:49.086Z,25.66
2018-08-08T11:53:18.826Z,23.94
2018-08-08T11:55:48.164Z,24.45
2018-08-08T11:58:17.586Z,24.72
2018-08-08T12:00:47.435Z,24.84
2018-08-08T12:03:17.386Z,24.33
2018-08-08T12:05:47.171Z,24.08
2018-08-08T12:08:16.531Z,25.25
2018-08-08T12:10:46.269Z,24.85
2018-08-08T12:13:15.729Z,25.12
2018-08-08T12:15:45.468Z,25.42
2018-08-08T12:18:15.366Z,24.48
2018-08-08T12:20:46.097Z,24.57
2018-08-08T12:23:16.046Z,25.16
2018-08-08T12:25:47.249Z,24.50
2018-08-08T12:28:16.952Z,24.39
2018-08-08T12:30:46.837Z,24.52
2018-08-08T12:33:16.200Z,24.00
2018-08-08T12:35:45.689Z,24.53
2018-08-08T12:38:15.441Z,23.20
2018-08-08T12:40:44.867Z,23.08
2018-08-08T12:43:14.289Z,23.54
2018-08-08T12:45:45.281Z,23.03
2018-08-08T12:48:15.769Z,23.35
2018-08-08T12:50:45.925Z,23.21
2018-08-08T12:53:16.926Z,23.43
2018-08-08T12:55:47.452Z,23.09
2018-08-08T12:58:20.271Z,23.33
2018-08-08T13:03:55.437Z,22.38
2018-08-08T13:06:28.550Z,21.73
2018-08-08T13:08:58.495Z,21.92
2018-08-08T13:11:29.227Z,22.31
2018-08-08T13:27:55.453Z,20.15
2018-08-08T13:30:25.530Z,20.42
2018-08-08T13:32:55.721Z,20.42
2018-08-08T13:35:30.909Z,20.29
2018-08-08T13:38:00.617Z,20.04
2018-08-08T13:40:31.865Z,20.28
2018-08-08T13:43:01.938Z,19.55
2018-08-08T13:45:43.824Z,20.66
2018-08-08T13:48:13.614Z,20.92
2018-08-08T13:50:44.791Z,21.90
2018-08-08T13:53:15.240Z,22.17
2018-08-08T13:55:44.866Z,22.57
2018-08-08T13:58:14.558Z,22.98
2018-08-08T14:00:50.132Z,23.12
2018-08-08T14:03:20.418Z,23.66
2018-08-08T14:05:50.478Z,23.95
2018-08-08T14:08:20.534Z,23.63
2018-08-08T14:10:50.776Z,23.41
2018-08-08T14:13:21.297Z,23.65
2018-08-08T14:15:52.014Z,22.55
2018-08-08T14:18:22.647Z,22.88
2018-08-08T14:20:58.183Z,22.94
2018-08-08T14:23:28.412Z,22.67
2018-08-08T14:26:03.347Z,22.64
2018-08-08T14:28:34.174Z,22.22
2018-08-08T14:31:04.836Z,22.62
2018-08-08T14:33:34.622Z,22.42
2018-08-08T14:36:04.274Z,21.82
2018-08-08T14:38:33.906Z,22.03
2018-08-08T14:41:03.870Z,22.44
2018-08-08T14:43:34.005Z,22.68
2018-08-08T14:46:04.098Z,22.83
2018-08-08T14:48:33.590Z,22.72
2018-08-08T14:51:03.850Z,22.62
2018-08-08T14:53:35.004Z,22.52
2018-08-08T14:56:05.409Z,23.03
2018-08-08T14:58:34.916Z,22.85
2018-08-08T15:01:07.202Z,22.67
2018-08-08T15:03:36.705Z,22.50
2018-08-08T15:06:06.596Z,22.95
2018-08-08T15:08:36.693Z,23.21
2018-08-08T15:11:06.530Z,22.91
2018-08-08T15:13:36.786Z,23.27
2018-08-08T15:16:06.900Z,23.23
2018-08-08T15:18:36.570Z,22.87
2018-08-08T15:21:06.481Z,22.85
2018-08-08T15:23:36.538Z,23.45
2018-08-08T15:26:06.160Z,22.91
2018-08-08T15:28:36.368Z,23.73
2018-08-08T15:31:07.181Z,23.81
2018-08-08T15:33:36.589Z,23.44
2018-08-08T15:36:06.760Z,23.71
2018-08-08T15:38:37.521Z,23.10
2018-08-08T15:41:16.987Z,23.39
2018-08-08T15:43:46.897Z,23.30
2018-08-08T15:46:16.717Z,23.68
2018-08-08T15:48:46.283Z,23.50
2018-08-08T15:51:16.423Z,23.65
2018-08-08T15:53:46.985Z,23.96
2018-08-08T15:56:16.957Z,24.18
2018-08-08T15:58:46.445Z,23.96
2018-08-08T16:01:15.957Z,24.24
2018-08-08T16:03:46.097Z,23.95
2018-08-08T16:06:15.612Z,24.16
2018-08-08T16:08:55.288Z,24.62
2018-08-08T16:11:25.626Z,24.92
2018-08-08T16:13:55.577Z,24.39
2018-08-08T16:16:25.885Z,25.05
2018-08-08T16:18:55.404Z,24.89
2018-08-08T16:21:25.447Z,24.55
2018-08-08T16:23:56.602Z,25.37
2018-08-08T16:26:26.881Z,25.46
2018-08-08T16:28:56.429Z,25.06
2018-08-08T16:31:25.878Z,29.36
2018-08-08T16:33:55.809Z,31.89
2018-08-08T16:36:25.285Z,33.03
2018-08-08T16:38:56.748Z,33.48
2018-08-08T16:41:26.625Z,35.74
2018-08-08T16:43:56.108Z,36.91
2018-08-08T16:46:25.676Z,37.73
2018-08-08T16:48:55.691Z,38.10
2018-08-08T16:51:25.573Z,38.75
2018-08-08T16:53:55.141Z,40.83
2018-08-08T16:56:25.065Z,43.27
2018-08-08T16:58:55.061Z,43.79
2018-08-08T17:01:26.129Z,44.37
2018-08-08T17:03:55.657Z,46.27
2018-08-08T17:06:26.061Z,46.87
2018-08-08T17:08:55.469Z,46.65
2018-08-08T17:11:24.990Z,47.18
2018-08-08T17:13:54.751Z,47.75
2018-08-08T17:16:24.242Z,48.80
2018-08-08T17:18:54.150Z,48.79
2018-08-08T17:21:24.078Z,48.71
2018-08-08T17:23:53.719Z,48.43
2018-08-08T17:26:23.289Z,48.14
2018-08-08T17:28:53.857Z,47.97
2018-08-08T17:31:24.003Z,47.47
2018-08-08T17:33:54.337Z,47.76
2018-08-08T17:36:33.001Z,48.59
2018-08-08T17:39:07.087Z,49.02
2018-08-08T17:41:37.899Z,49.41
2018-08-08T17:44:07.834Z,48.74
2018-08-08T17:46:37.734Z,48.00
2018-08-08T17:49:07.746Z,46.10
2018-08-08T17:51:38.084Z,45.88
2018-08-08T17:54:08.030Z,45.72
2018-08-08T17:56:37.738Z,45.87
2018-08-08T17:59:07.934Z,45.30
2018-08-08T18:01:38.853Z,46.01
2018-08-08T18:04:09.837Z,45.92
2018-08-08T18:06:39.516Z,46.67
2018-08-08T18:09:12.232Z,47.10
2018-08-08T18:11:41.864Z,47.24
2018-08-08T18:14:12.123Z,48.02
2018-08-08T18:16:41.650Z,48.47
2018-08-08T18:19:11.790Z,48.26
2018-08-08T18:21:41.441Z,49.21
2018-08-08T18:24:11.309Z,49.21
2018-08-08T18:26:41.186Z,49.53
2018-08-08T18:29:11.182Z,50.30
2018-08-08T18:31:41.668Z,50.88
2018-08-08T18:34:11.454Z,51.30
2018-08-08T18:36:40.939Z,52.61
2018-08-08T18:39:11.038Z,52.03
2018-08-08T18:41:40.928Z,53.34
2018-08-08T18:44:11.000Z,54.58
2018-08-08T18:46:42.747Z,54.34
2018-08-08T18:49:12.323Z,53.23
2018-08-08T18:51:41.807Z,54.01
2018-08-08T18:54:12.288Z,52.42
2018-08-08T18:56:42.127Z,52.08
2018-08-08T18:59:12.012Z,53.28
2018-08-08T19:01:41.944Z,53.89
2018-08-08T19:04:15.020Z,55.61
2018-08-08T19:06:44.842Z,53.46
2018-08-08T19:09:14.484Z,53.46
2018-08-08T19:11:44.500Z,53.69
2018-08-08T19:14:15.048Z,53.27
2018-08-08T19:16:46.959Z,52.07
2018-08-08T19:19:17.154Z,52.15
2018-08-08T19:21:46.896Z,53.72
2018-08-08T19:24:16.780Z,53.98
2018-08-08T19:26:47.962Z,54.51
2018-08-08T19:29:18.730Z,56.22
2018-08-08T19:31:48.424Z,57.62
2018-08-08T19:34:18.856Z,56.16
2018-08-08T19:36:48.545Z,55.86
2018-08-08T19:39:18.675Z,54.99
2018-08-08T19:41:54.807Z,55.16
2018-08-08T19:44:26.066Z,56.89
2018-08-08T19:46:56.879Z,58.70
2018-08-08T19:49:27.163Z,59.17
2018-08-08T19:51:56.859Z,59.73
2018-08-08T19:54:28.073Z,59.55
2018-08-08T19:56:57.866Z,59.87
2018-08-08T19:59:29.295Z,60.25
2018-08-08T20:02:00.276Z,59.49
2018-08-08T20:04:32.507Z,59.85
2018-08-08T20:07:02.478Z,59.83
2018-08-08T20:09:32.557Z,59.19
2018-08-08T20:12:02.728Z,59.19
2018-08-08T20:14:32.504Z,59.26
2018-08-08T20:17:02.277Z,59.22
2018-08-08T20:19:31.939Z,59.05
2018-08-08T20:22:01.550Z,59.56
2018-08-08T20:24:31.966Z,59.31
2018-08-08T20:27:02.411Z,59.24
2018-08-08T20:29:31.997Z,58.98
2018-08-08T20:32:28.035Z,59.27
2018-08-08T20:34:57.664Z,58.89
2018-08-08T20:37:27.603Z,58.81
2018-08-08T20:39:57.404Z,59.12
2018-08-08T20:42:26.952Z,59.12
2018-08-08T20:44:56.374Z,59.38
2018-08-08T20:47:26.037Z,59.21
2018-08-08T20:49:56.143Z,58.98
2018-08-08T20:52:26.054Z,58.79
2018-08-08T20:54:55.553Z,58.79
2018-08-08T20:57:25.089Z,59.09
2018-08-08T20:59:55.115Z,59.13
2018-08-08T21:02:25.306Z,59.09
2018-08-08T21:04:54.985Z,59.54
2018-08-08T21:07:24.538Z,58.86
2018-08-08T21:09:54.138Z,59.63
2018-08-08T21:12:24.681Z,59.37
2018-08-08T21:14:54.503Z,60.03
2018-08-08T21:17:24.428Z,60.06
2018-08-08T21:19:54.403Z,59.71
2018-08-08T21:22:24.299Z,59.80
2018-08-08T21:24:53.856Z,59.77
2018-08-08T21:27:23.976Z,59.95
2018-08-08T21:29:54.118Z,60.08
2018-08-08T21:32:23.688Z,61.00
2018-08-08T21:34:53.564Z,60.79
2018-08-08T21:37:23.572Z,61.74
2018-08-08T21:39:53.534Z,61.53
2018-08-08T21:42:24.270Z,62.68
2018-08-08T21:44:53.871Z,61.92
2018-08-08T21:47:24.152Z,62.76
2018-08-08T21:49:53.854Z,63.38
2018-08-08T21:52:23.730Z,63.06
2018-08-08T21:55:04.994Z,62.99
2018-08-08T21:57:51.573Z,63.95
2018-08-08T22:00:38.081Z,64.55
2018-08-08T22:04:24.474Z,64.91
2018-08-08T22:07:11.293Z,64.47
2018-08-08T22:09:57.682Z,64.81
2018-08-08T22:12:46.030Z,64.75
2018-08-08T22:15:32.711Z,65.42
2018-08-08T22:18:19.255Z,66.84
2018-08-08T22:20:49.598Z,67.10
2018-08-08T22:23:20.602Z,68.36
2018-08-08T22:25:50.852Z,68.42
2018-08-08T22:28:20.814Z,68.26
2018-08-08T22:30:50.835Z,68.24
2018-08-08T22:33:21.098Z,68.29
2018-08-08T22:35:52.338Z,68.87
2018-08-08T22:38:22.324Z,68.33
2018-08-08T22:40:52.313Z,68.45
2018-08-08T22:43:22.758Z,68.71
2018-08-08T22:45:55.570Z,68.33
2018-08-08T22:48:26.918Z,69.64
2018-08-08T22:50:57.881Z,69.24
2018-08-08T22:53:27.965Z,69.04
2018-08-08T22:55:58.234Z,70.56
2018-08-08T22:58:29.688Z,70.29
2018-08-08T23:01:04.478Z,71.78
2018-08-08T23:03:34.718Z,71.01
2018-08-08T23:06:05.340Z,70.60
2018-08-08T23:08:40.733Z,70.52
2018-08-08T23:11:15.649Z,70.04
2018-08-08T23:13:46.178Z,70.05
2018-08-08T23:16:17.000Z,70.20
2018-08-08T23:18:46.897Z,70.68
2018-08-08T23:21:17.674Z,70.93
2018-08-08T23:23:47.833Z,70.48
2018-08-08T23:26:18.034Z,71.10
2018-08-08T23:28:48.282Z,70.98
2018-08-08T23:31:18.826Z,71.46
2018-08-08T23:33:48.436Z,71.61
2018-08-08T23:36:34.359Z,71.11
2018-08-08T23:39:04.193Z,72.94
2018-08-08T23:41:34.169Z,73.84
2018-08-08T23:44:03.917Z,73.67
2018-08-08T23:46:34.363Z,73.41
2018-08-08T23:49:04.416Z,73.66
2018-08-08T23:51:34.357Z,75.07
2018-08-08T23:54:03.911Z,74.36
2018-08-08T23:56:34.019Z,74.10
2018-08-08T23:59:04.793Z,74.38
